• Join FlightAware (Why Join?)
  • Login
  • US Flag 
07:09AM EDT


 

Airport Tracker/Info


-or-


 

Live Flight TrackerFlight Track Log ✈ N525AL ✈ 09-May-2013 ✈ KROG - KMQY

Flight Track Log - Related Links

Times and Time Zones

All times are in EDT time to prevent confusion due to time zone crossing. See the N525AL flight status page for this flight to view local times or setup timezone preferences in your user account.

Time Position Orientation Groundspeed Altitude Reporting Facility
EDT Latitude Longitude Course Direction KTS MPH feet Rate Location/Type
06:30PM 36.2617 -93.9347 92° East 285 328 10,600  Level Memphis Center
06:31PM 36.2597 -93.8575 92° East 263 303 13,800 3,060 Climbing Memphis Center
06:32PM 36.3631 -93.5996 91° East  Level Estimated
06:32PM 36.2619 -93.7803 88° East 233 268 16,800  Level Memphis Center
06:33PM 36.3610 -93.4981 91° East  Level Estimated
06:33PM 36.2556 -93.7053 96° East 227 261 18,900  Level Memphis Center
06:34PM 36.3588 -93.3967 92° East  Level Estimated
06:34PM 36.2578 -93.6206 88° East 222 255 20,300  Level Memphis Center
06:35PM 36.3565 -93.2952 92° East  Level Estimated
06:35PM 36.2603 -93.5253 88° East 245 282 21,700  Level Memphis Center
06:36PM 36.2692 -93.4203 84° East 274 315 23,200 1,500 Climbing Memphis Center
06:37PM 36.2758 -93.3150 85° East 293 337 24,700 1,500 Climbing Memphis Center
06:38PM 36.2825 -93.2069 86° East 310 357 26,200 1,260 Climbing Memphis Center
06:39PM 36.2744 -93.0986 95° East 310 357 27,300 1,020 Climbing Memphis Center
06:40PM 36.2686 -92.9853 94° East 315 362 28,300 960 Climbing Memphis Center
06:41PM 36.2628 -92.8692 94° East 325 374 29,300 1,020 Climbing Memphis Center
06:42PM 36.2525 -92.7478 96° East 337 388 30,400 1,020 Climbing Memphis Center
06:43PM 36.2464 -92.6267 94° East 344 396 31,400 900 Climbing Memphis Center
06:44PM 36.2403 -92.5031 93° East 354 407 32,300 780 Climbing Memphis Center
06:45PM 36.2319 -92.3767 95° East 354 407 33,000 300 Climbing Memphis Center
06:46PM 36.2258 -92.2456 93° East 372 428 33,000  Level Memphis Center
06:47PM 36.2153 -92.1036 95° East 390 449 33,000  Level Memphis Center
06:48PM 36.2022 -91.9800 97° East 395 455 33,000  Level Memphis Center
06:49PM 36.1958 -91.8383 93° East 406 467 33,000  Level Memphis Center
06:50PM 36.1847 -91.6967 96° East 406 467 33,000  Level Memphis Center
06:51PM 36.1758 -91.5525 94° East 411 473 33,000  Level Memphis Center
06:52PM 36.1689 -91.4111 93° East 411 473 33,000  Level Memphis Center
06:53PM 36.1553 -91.2644 97° East 411 473 33,000  Level Memphis Center
06:54PM 36.1481 -91.1231 94° East 411 473 33,000  Level Memphis Center
06:55PM 36.1383 -90.9814 95° East 411 473 33,000  Level Memphis Center
06:56PM 36.1264 -90.8375 96° East 411 473 33,000  Level Memphis Center
06:57PM 36.1164 -90.6986 95° East 411 473 33,000  Level Memphis Center
06:58PM 36.1064 -90.5547 95° East 406 467 33,000  Level Memphis Center
06:59PM 36.0939 -90.4136 96° East 406 467 33,000  Level Memphis Center
07:00PM 36.0836 -90.2697 95° East 406 467 33,000  Level Memphis Center
07:01PM 36.0728 -90.1283 95° East 406 467 33,000  Level Memphis Center
07:02PM 36.0600 -89.9872 96° East 406 467 33,000  Level Memphis Center
07:03PM 36.0492 -89.8461 95° East 406 467 33,000  Level Memphis Center
07:04PM 36.0358 -89.7050 97° East 406 467 33,000  Level Memphis Center
07:05PM 36.0225 -89.5614 97° East 406 467 33,000  Level Memphis Center
07:06PM 36.0133 -89.4203 95° East 406 467 33,000  Level Memphis Center
07:07PM 35.9994 -89.2769 97° East 406 467 33,000  Level Memphis Center
07:08PM 35.9878 -89.1358 96° East 406 467 33,000  Level Memphis Center
07:09PM 35.9758 -88.9950 96° East 406 467 33,000 -240 Level Memphis Center
07:10PM 35.9658 -88.8542 95° East 406 467 32,600 -900 Descending Memphis Center
07:11PM 35.9539 -88.7158 96° East 406 467 31,200 -1,500 Descending Memphis Center
07:12PM 35.9414 -88.5750 96° East 406 467 29,700 -1,500 Descending Memphis Center
07:13PM 35.9311 -88.4419 95° East 401 461 28,300 -1,500 Descending Memphis Center
07:14PM 35.9164 -88.3117 98° East 396 456 26,700 -2,100 Descending Memphis Center
07:15PM 35.9039 -88.1811 97° East 390 449 24,200 -2,520 Descending Memphis Center
07:16PM 35.8933 -88.0561 96° East 379 436 21,800 -2,400 Descending Memphis Center
07:17PM 35.8803 -87.9283 97° East 374 430 19,500 -2,340 Descending Memphis Center
07:18PM 35.8675 -87.8083 97° East 363 418 17,200 -2,340 Descending Memphis Center
07:19PM 35.8544 -87.6831 97° East 363 418 14,900 -2,340 Descending Memphis Center
07:20PM 35.8458 -87.5708 95° East 346 398 12,600 -1,920 Descending Memphis Center
07:21PM 35.8369 -87.4558 95° East 340 391 11,100 -840 Descending Memphis Center
07:22PM 35.8739 -87.3519 66° East 321 369 11,000 -420 Descending Memphis Center
07:23PM 35.9069 -87.2458 69° East 326 375 10,300 -1,020 Descending Memphis Center
07:24PM 35.9247 -87.1347 79° East 314 361 9,000 -1,260 Descending Memphis Center
07:25PM 35.9328 -87.0372 84° East 297 342 7,800 -1,200 Descending Memphis Center
07:26PM 35.9383 -86.9419 86° East 285 328 6,600 -900 Descending Memphis Center
07:27PM 35.9442 -86.8494 86° East 275 316 6,000 -840 Descending Memphis Center
07:28PM 35.9500 -86.7569 86° East 275 316 5,000 -1,080 Descending Memphis Center
07:29PM 35.9556 -86.6669 86° East 275 316 3,900 -1,140 Descending Memphis Center
07:30PM 35.9717 -86.5817 77° East 267 307 2,800 -900 Descending Memphis Center
07:31PM 36.0294 -86.5558 20° North 202 232 2,100 -660 Descending Memphis Center
07:32PM 36.0492 -86.5242 52° Northeast 132 152 1,500 -660 Descending Memphis Center
07:33PM 36.0242 -86.5203 173° South 59 68 800 -720 Descending Memphis Center